Time;durP1;ratioP1;P1;durP2;ratioP2;P2;SDS_P1;SDS_P2;PMS_P1;PMS_P2;Temp;Humidity;BMP_temperature;BMP_pressure;BME280_temperature;BME280_humidity;BME280_pressure;Samples;Min_cycle;Max_cycle;Signal;HPM_P1;HPM_P2
2024/04/21 00:00:16;;;;;;;;;;;;;;;;;;5506937;26;19962;-55
2024/04/21 00:02:42;;;;;;;;;;;;;;;;;;5492980;26;19935;-56
2024/04/21 00:05:08;;;;;;;;;;;;;;;;;;5509125;26;19928;-56
2024/04/21 00:07:33;;;;;;;;;;;;;;;;;;5509217;25;19928;-56
2024/04/21 00:09:59;;;;;;;;;;;;;;;;;;5518317;25;19931;-58
2024/04/21 00:12:25;;;;;;;;;;;;;;;;;;5512142;25;19935;-57
2024/04/21 00:14:51;;;;;;;;;;;;;;;;;;5513451;25;19935;-56
2024/04/21 00:17:17;;;;;;;;;;;;;;;;;;5507603;26;19974;-56
2024/04/21 00:19:43;;;;;;;;;;;;;;;;;;5507284;25;19928;-56
2024/04/21 00:22:09;;;;;;;;;;;;;;;;;;5509012;25;19939;-56
2024/04/21 00:24:35;;;;;;;;;;;;;;;;;;5506402;25;19935;-58
2024/04/21 00:27:01;;;;;;;;;;;;;;;;;;5498619;26;19928;-56
2024/04/21 00:29:27;;;;;;;;;;;;;;;;;;5518965;26;19927;-56
2024/04/21 00:31:53;;;;;;;;;;;;;;;;;;5504577;26;19928;-56
2024/04/21 00:34:19;;;;;;;;;;;;;;;;;;5499926;25;19939;-57
2024/04/21 00:36:45;;;;;;;;;;;;;;;;;;5502965;26;19935;-58
2024/04/21 00:39:10;;;;;;;;;;;;;;;;;;5508875;25;19943;-56
2024/04/21 00:41:36;;;;;;;;;;;;;;;;;;5507281;26;19939;-56
2024/04/21 00:44:02;;;;;;;;;;;;;;;;;;5492861;26;20012;-60
2024/04/21 00:46:28;;;;;;;;;;;;;;;;;;5502911;26;19927;-60
2024/04/21 00:48:54;;;;;;;;;;;;;;;;;;5495334;25;19932;-60
2024/04/21 00:51:20;;;;;;;;;;;;;;;;;;5508789;26;19964;-60
2024/04/21 00:53:46;;;;;;;;;;;;;;;;;;5495742;26;19935;-61
2024/04/21 00:56:12;;;;;;;;;;;;;;;;;;5508743;26;19946;-60
2024/04/21 00:58:38;;;;;;;;;;;;;;;;;;5505818;26;19935;-60
2024/04/21 01:01:04;;;;;;;;;;;;;;;;;;5504136;26;19928;-60
2024/04/21 01:03:30;;;;;;;;;;;;;;;;;;5515059;25;20344;-60
2024/04/21 01:05:56;;;;;;;;;;;;;;;;;;5506820;26;20427;-60
2024/04/21 01:08:22;;;;;;;;;;;;;;;;;;5508964;25;20166;-60
2024/04/21 01:10:47;;;;;;;;;;;;;;;;;;5502715;26;19936;-61
2024/04/21 01:13:13;;;;;;;;;;;;;;;;;;5478395;26;19928;-60
2024/04/21 01:15:39;;;;;;;;;;;;;;;;;;5510974;26;19940;-59
2024/04/21 01:18:05;;;;;;;;;;;;;;;;;;5518720;25;19935;-59
2024/04/21 01:20:31;;;;;;;;;;;;;;;;;;5496120;26;19954;-59
2024/04/21 01:22:57;;;;;;;;;;;;;;;;;;5505359;26;20321;-59
2024/04/21 01:25:23;;;;;;;;;;;;;;;;;;5497209;26;19928;-59
2024/04/21 01:27:49;;;;;;;;;;;;;;;;;;5517481;25;20026;-59
2024/04/21 01:30:15;;;;;;;;;;;;;;;;;;5493559;26;19996;-59
2024/04/21 01:32:41;;;;;;;;;;;;;;;;;;5514449;25;20316;-59
2024/04/21 01:35:07;;;;;;;;;;;;;;;;;;5505618;25;19996;-59
2024/04/21 01:37:33;;;;;;;;;;;;;;;;;;5509154;26;19939;-59
2024/04/21 01:39:59;;;;;;;;;;;;;;;;;;5511292;26;19935;-59
2024/04/21 01:42:25;;;;;;;;;;;;;;;;;;5501257;25;19931;-59
2024/04/21 01:44:51;;;;;;;;;;;;;;;;;;5507939;25;19928;-59
2024/04/21 01:47:17;;;;;;;;;;;;;;;;;;5514197;26;19927;-59
2024/04/21 01:49:44;;;;;;;;;;;;;;;;;;5501797;25;19939;-59
2024/04/21 01:52:10;;;;;;;;;;;;;;;;;;5508976;26;19927;-59
2024/04/21 01:54:36;;;;;;;;;;;;;;;;;;5515729;25;20287;-60
2024/04/21 01:57:02;;;;;;;;;;;;;;;;;;5506834;26;19927;-60
2024/04/21 01:59:28;;;;;;;;;;;;;;;;;;5504688;25;19935;-60
2024/04/21 02:01:54;;;;;;;;;;;;;;;;;;5509141;26;19953;-60
2024/04/21 02:04:20;;;;;;;;;;;;;;;;;;5513422;25;20371;-60
2024/04/21 02:06:46;;;;;;;;;;;;;;;;;;5499023;26;19928;-60
2024/04/21 02:09:12;;;;;;;;;;;;;;;;;;5515783;25;20004;-61
2024/04/21 02:11:38;;;;;;;;;;;;;;;;;;5507684;26;19935;-60
2024/04/21 02:14:03;;;;;;;;;;;;;;;;;;5510231;25;19927;-60
2024/04/21 02:16:29;;;;;;;;;;;;;;;;;;5498339;25;19928;-60
2024/04/21 02:18:55;;;;;;;;;;;;;;;;;;5504959;26;20353;-60
2024/04/21 02:21:21;;;;;;;;;;;;;;;;;;5500332;26;19932;-60
2024/04/21 02:23:47;;;;;;;;;;;;;;;;;;5514797;25;19938;-60
2024/04/21 02:26:13;;;;;;;;;;;;;;;;;;5509649;26;19942;-57
2024/04/21 02:28:39;;;;;;;;;;;;;;;;;;5512654;25;19928;-57
2024/04/21 02:31:06;;;;;;;;;;;;;;;;;;5499366;26;20256;-58
2024/04/21 02:33:32;;;;;;;;;;;;;;;;;;5515976;25;19935;-58
2024/04/21 02:35:58;;;;;;;;;;;;;;;;;;5501221;26;19931;-57
2024/04/21 02:38:24;;;;;;;;;;;;;;;;;;5514163;25;20264;-57
2024/04/21 02:40:50;;;;;;;;;;;;;;;;;;5498075;26;20344;-57
2024/04/21 02:43:17;;;;;;;;;;;;;;;;;;5520613;25;19935;-57
2024/04/21 02:45:43;;;;;;;;;;;;;;;;;;5506617;26;19996;-57
2024/04/21 02:48:09;;;;;;;;;;;;;;;;;;5516808;25;19935;-57
2024/04/21 02:50:35;;;;;;;;;;;;;;;;;;5496351;26;19935;-57
2024/04/21 02:53:00;;;;;;;;;;;;;;;;;;5503628;25;20378;-58
2024/04/21 02:55:26;;;;;;;;;;;;;;;;;;5490298;26;20371;-57
2024/04/21 02:57:52;;;;;;;;;;;;;;;;;;5500298;26;20380;-58
2024/04/21 03:00:18;;;;;;;;;;;;;;;;;;5505668;26;19976;-57
2024/04/21 03:02:44;;;;;;;;;;;;;;;;;;5504103;25;19927;-57
2024/04/21 03:05:13;;;;;;;;;;;;;;;;;;5497784;26;19944;-56
2024/04/21 03:07:39;;;;;;;;;;;;;;;;;;5498467;26;19935;-56
2024/04/21 03:10:05;;;;;;;;;;;;;;;;;;5495943;26;19932;-56
2024/04/21 03:12:31;;;;;;;;;;;;;;;;;;5506314;25;20259;-59
2024/04/21 03:14:57;;;;;;;;;;;;;;;;;;5515914;25;20162;-59
2024/04/21 03:17:23;;;;;;;;;;;;;;;;;;5508804;25;20701;-59
2024/04/21 03:19:49;;;;;;;;;;;;;;;;;;5509382;25;20363;-59
2024/04/21 03:22:15;;;;;;;;;;;;;;;;;;5506645;26;19939;-59
2024/04/21 03:24:41;;;;;;;;;;;;;;;;;;5509487;25;19928;-59
2024/04/21 03:27:06;;;;;;;;;;;;;;;;;;5510554;26;19927;-59
2024/04/21 03:29:32;;;;;;;;;;;;;;;;;;5519431;25;19927;-56
2024/04/21 03:31:59;;;;;;;;;;;;;;;;;;5480730;26;19928;-56
2024/04/21 03:34:25;;;;;;;;;;;;;;;;;;5504593;25;19939;-56
2024/04/21 03:36:51;;;;;;;;;;;;;;;;;;5497577;26;20011;-56
2024/04/21 03:39:17;;;;;;;;;;;;;;;;;;5526592;25;20646;-56
2024/04/21 03:41:43;;;;;;;;;;;;;;;;;;5495011;26;19928;-56
2024/04/21 03:44:09;;;;;;;;;;;;;;;;;;5509364;25;19939;-55
2024/04/21 03:46:35;;;;;;;;;;;;;;;;;;5492991;26;19996;-56
2024/04/21 03:49:01;;;;;;;;;;;;;;;;;;5511591;25;19935;-59
2024/04/21 03:51:27;;;;;;;;;;;;;;;;;;5509062;25;19935;-59
2024/04/21 03:53:52;;;;;;;;;;;;;;;;;;5470597;26;19928;-57
2024/04/21 03:56:18;;;;;;;;;;;;;;;;;;5504188;25;19928;-56
2024/04/21 03:58:44;;;;;;;;;;;;;;;;;;5481433;26;20373;-56
2024/04/21 04:01:10;;;;;;;;;;;;;;;;;;5504863;26;20003;-56
2024/04/21 04:03:40;;;;;;;;;;;;;;;;;;5509303;25;19939;-57
2024/04/21 04:06:06;;;;;;;;;;;;;;;;;;5509132;26;19935;-56
2024/04/21 04:08:32;;;;;;;;;;;;;;;;;;5510802;25;19935;-56
2024/04/21 04:10:57;;;;;;;;;;;;;;;;;;5493914;26;20349;-58
2024/04/21 04:13:23;;;;;;;;;;;;;;;;;;5511766;26;20371;-56
2024/04/21 04:15:49;;;;;;;;;;;;;;;;;;5503463;26;19931;-56
2024/04/21 04:18:15;;;;;;;;;;;;;;;;;;5518164;25;20585;-56
2024/04/21 04:20:41;;;;;;;;;;;;;;;;;;5500755;26;20266;-56
2024/04/21 04:23:07;;;;;;;;;;;;;;;;;;5495857;25;19935;-56
2024/04/21 04:25:33;;;;;;;;;;;;;;;;;;5510623;26;19928;-56
2024/04/21 04:27:59;;;;;;;;;;;;;;;;;;5510705;25;19995;-55
2024/04/21 04:30:25;;;;;;;;;;;;;;;;;;5509440;26;19959;-56
2024/04/21 04:32:51;;;;;;;;;;;;;;;;;;5509655;25;19939;-55
2024/04/21 04:35:17;;;;;;;;;;;;;;;;;;5502962;26;19927;-56
2024/04/21 04:37:43;;;;;;;;;;;;;;;;;;5513305;25;19935;-56
2024/04/21 04:40:11;;;;;;;;;;;;;;;;;;5492311;25;20324;-57
2024/04/21 04:42:37;;;;;;;;;;;;;;;;;;5500024;26;19934;-56
2024/04/21 04:45:03;;;;;;;;;;;;;;;;;;5504853;26;20520;-58
2024/04/21 04:47:29;;;;;;;;;;;;;;;;;;5503013;25;19933;-58
2024/04/21 04:49:55;;;;;;;;;;;;;;;;;;5517652;26;20350;-56
2024/04/21 04:52:21;;;;;;;;;;;;;;;;;;5496329;26;19935;-56
2024/04/21 04:54:47;;;;;;;;;;;;;;;;;;5520006;25;20001;-56
2024/04/21 04:57:12;;;;;;;;;;;;;;;;;;5500300;26;19928;-59
2024/04/21 04:59:38;;;;;;;;;;;;;;;;;;5510863;26;19934;-59
2024/04/21 05:02:04;;;;;;;;;;;;;;;;;;5503352;25;19932;-59
2024/04/21 05:04:30;;;;;;;;;;;;;;;;;;5504581;25;19928;-60
2024/04/21 05:06:56;;;;;;;;;;;;;;;;;;5501744;26;19963;-60
2024/04/21 05:09:22;;;;;;;;;;;;;;;;;;5517483;25;19932;-60
2024/04/21 05:11:48;;;;;;;;;;;;;;;;;;5493249;26;20005;-60
2024/04/21 05:14:14;;;;;;;;;;;;;;;;;;5515273;25;19927;-60
2024/04/21 05:16:44;;;;;;;;;;;;;;;;;;5509992;26;19931;-60
2024/04/21 05:19:10;;;;;;;;;;;;;;;;;;5502726;26;19962;-60
2024/04/21 05:21:36;;;;;;;;;;;;;;;;;;5499815;26;19935;-60
2024/04/21 05:24:02;;;;;;;;;;;;;;;;;;5513289;25;19928;-60
2024/04/21 05:26:28;;;;;;;;;;;;;;;;;;5471488;26;19935;-60
2024/04/21 05:28:54;;;;;;;;;;;;;;;;;;5511630;25;19936;-62
2024/04/21 05:31:20;;;;;;;;;;;;;;;;;;5507283;25;19932;-62
2024/04/21 05:33:46;;;;;;;;;;;;;;;;;;5502157;25;20244;-62
2024/04/21 05:36:12;;;;;;;;;;;;;;;;;;5506672;26;19931;-62
2024/04/21 05:38:38;;;;;;;;;;;;;;;;;;5507943;25;19935;-62
2024/04/21 05:41:04;;;;;;;;;;;;;;;;;;5512560;26;19928;-62
2024/04/21 05:43:30;;;;;;;;;;;;;;;;;;5508043;25;20348;-61
2024/04/21 05:45:56;;;;;;;;;;;;;;;;;;5507134;26;20370;-61
2024/04/21 05:48:21;;;;;;;;;;;;;;;;;;5514803;25;19927;-62
2024/04/21 05:50:47;;;;;;;;;;;;;;;;;;5495929;26;19947;-61
2024/04/21 05:53:13;;;;;;;;;;;;;;;;;;5505885;25;20462;-63
2024/04/21 05:55:39;;;;;;;;;;;;;;;;;;5497302;26;19927;-62
2024/04/21 05:58:05;;;;;;;;;;;;;;;;;;5506985;26;20352;-62
2024/04/21 06:00:31;;;;;;;;;;;;;;;;;;5507966;26;19936;-62
2024/04/21 06:02:57;;;;;;;;;;;;;;;;;;5500019;25;19939;-62
2024/04/21 06:05:23;;;;;;;;;;;;;;;;;;5511958;26;19995;-62
2024/04/21 06:07:49;;;;;;;;;;;;;;;;;;5506972;26;19936;-59
2024/04/21 06:10:15;;;;;;;;;;;;;;;;;;5481796;26;19934;-58
2024/04/21 06:12:41;;;;;;;;;;;;;;;;;;5501101;25;20282;-57
2024/04/21 06:15:07;;;;;;;;;;;;;;;;;;5499424;26;19928;-57
2024/04/21 06:17:33;;;;;;;;;;;;;;;;;;5495506;26;19935;-58
2024/04/21 06:19:59;;;;;;;;;;;;;;;;;;5504229;26;19931;-59
2024/04/21 06:22:25;;;;;;;;;;;;;;;;;;5500923;26;20102;-59
2024/04/21 06:24:51;;;;;;;;;;;;;;;;;;5496388;26;19936;-58
2024/04/21 06:27:17;;;;;;;;;;;;;;;;;;5504218;26;19935;-58
2024/04/21 06:29:43;;;;;;;;;;;;;;;;;;5504653;25;19927;-59
2024/04/21 06:32:09;;;;;;;;;;;;;;;;;;5506701;26;19935;-58
2024/04/21 06:34:35;;;;;;;;;;;;;;;;;;5505085;25;19935;-57
2024/04/21 06:37:01;;;;;;;;;;;;;;;;;;5498701;26;19928;-57
2024/04/21 06:39:27;;;;;;;;;;;;;;;;;;5515775;25;20344;-60
2024/04/21 06:41:53;;;;;;;;;;;;;;;;;;5504035;26;19934;-59
2024/04/21 06:44:19;;;;;;;;;;;;;;;;;;5515110;25;19927;-56
2024/04/21 06:46:45;;;;;;;;;;;;;;;;;;5498028;26;20006;-57
2024/04/21 06:49:11;;;;;;;;;;;;;;;;;;5509435;25;19946;-57
2024/04/21 06:51:36;;;;;;;;;;;;;;;;;;5507719;26;19934;-57
2024/04/21 06:54:02;;;;;;;;;;;;;;;;;;5516949;25;19995;-56
2024/04/21 06:56:28;;;;;;;;;;;;;;;;;;5503725;26;19973;-58
2024/04/21 06:58:54;;;;;;;;;;;;;;;;;;5504422;25;20360;-59
2024/04/21 07:01:20;;;;;;;;;;;;;;;;;;5504369;26;20238;-57
2024/04/21 07:03:46;;;;;;;;;;;;;;;;;;5503645;26;19936;-57
2024/04/21 07:06:12;;;;;;;;;;;;;;;;;;5499677;26;19927;-57
2024/04/21 07:08:38;;;;;;;;;;;;;;;;;;5501925;25;19997;-57
2024/04/21 07:11:05;;;;;;;;;;;;;;;;;;5498587;26;19936;-57
2024/04/21 07:13:31;;;;;;;;;;;;;;;;;;5519725;25;20416;-59
2024/04/21 07:15:57;;;;;;;;;;;;;;;;;;5511572;26;19939;-57
2024/04/21 07:18:23;;;;;;;;;;;;;;;;;;5510079;25;19927;-57
2024/04/21 07:20:49;;;;;;;;;;;;;;;;;;5503277;26;19927;-57
2024/04/21 07:23:15;;;;;;;;;;;;;;;;;;5504731;26;19935;-57
2024/04/21 07:25:41;;;;;;;;;;;;;;;;;;5500733;26;19928;-57
2024/04/21 07:28:06;;;;;;;;;;;;;;;;;;5516008;25;19934;-57
2024/04/21 07:30:34;;;;;;;;;;;;;;;;;;5510825;26;19938;-57
2024/04/21 07:33:00;;;;;;;;;;;;;;;;;;5506228;26;19937;-57
2024/04/21 07:35:26;;;;;;;;;;;;;;;;;;5501332;26;20347;-56
2024/04/21 07:37:52;;;;;;;;;;;;;;;;;;5510877;25;20427;-58
2024/04/21 07:40:18;;;;;;;;;;;;;;;;;;5496547;26;19935;-56
2024/04/21 07:42:44;;;;;;;;;;;;;;;;;;5516291;25;19938;-56
2024/04/21 07:45:10;;;;;;;;;;;;;;;;;;5501413;26;19935;-58
2024/04/21 07:47:36;;;;;;;;;;;;;;;;;;5513888;25;19927;-61
2024/04/21 07:50:02;;;;;;;;;;;;;;;;;;5508697;25;19984;-60
2024/04/21 07:52:28;;;;;;;;;;;;;;;;;;5481781;25;19935;-60
2024/04/21 07:54:54;;;;;;;;;;;;;;;;;;5509706;26;19935;-60
2024/04/21 07:57:20;;;;;;;;;;;;;;;;;;5504340;26;19973;-60
2024/04/21 07:59:46;;;;;;;;;;;;;;;;;;5508254;25;19978;-60
2024/04/21 08:02:12;;;;;;;;;;;;;;;;;;5497999;26;19927;-60
2024/04/21 08:04:37;;;;;;;;;;;;;;;;;;5506363;26;19935;-60
2024/04/21 08:07:03;;;;;;;;;;;;;;;;;;5501876;26;19939;-60
2024/04/21 08:09:29;;;;;;;;;;;;;;;;;;5502026;26;19932;-60
2024/04/21 08:11:55;;;;;;;;;;;;;;;;;;5499029;26;20000;-59
2024/04/21 08:14:21;;;;;;;;;;;;;;;;;;5502395;25;20299;-60
2024/04/21 08:16:47;;;;;;;;;;;;;;;;;;5499347;26;20267;-60
2024/04/21 08:19:13;;;;;;;;;;;;;;;;;;5510590;25;20360;-60
2024/04/21 08:21:39;;;;;;;;;;;;;;;;;;5497260;26;20321;-59
2024/04/21 08:24:05;;;;;;;;;;;;;;;;;;5503071;25;20725;-59
2024/04/21 08:26:31;;;;;;;;;;;;;;;;;;5502476;25;20447;-59
2024/04/21 08:28:57;;;;;;;;;;;;;;;;;;5499773;25;19935;-59
2024/04/21 08:31:23;;;;;;;;;;;;;;;;;;5508161;26;19928;-59
2024/04/21 08:33:49;;;;;;;;;;;;;;;;;;5502254;25;19935;-60
2024/04/21 08:36:15;;;;;;;;;;;;;;;;;;5506839;26;20449;-59
2024/04/21 08:38:41;;;;;;;;;;;;;;;;;;5467598;26;19940;-58
2024/04/21 08:41:07;;;;;;;;;;;;;;;;;;5493982;26;19943;-57
2024/04/21 08:43:34;;;;;;;;;;;;;;;;;;5498384;25;19932;-57
2024/04/21 08:46:00;;;;;;;;;;;;;;;;;;5508462;26;19940;-57
2024/04/21 08:48:26;;;;;;;;;;;;;;;;;;5508488;25;20372;-59
2024/04/21 08:50:52;;;;;;;;;;;;;;;;;;5502027;25;19938;-57
2024/04/21 08:53:21;;;;;;;;;;;;;;;;;;5504853;25;20433;-57
2024/04/21 08:55:47;;;;;;;;;;;;;;;;;;5500317;26;19948;-58
2024/04/21 08:58:13;;;;;;;;;;;;;;;;;;5495037;26;19935;-57
2024/04/21 09:00:39;;;;;;;;;;;;;;;;;;5497089;26;19943;-58
2024/04/21 09:03:05;;;;;;;;;;;;;;;;;;5499147;26;20099;-57
2024/04/21 09:05:35;;;;;;;;;;;;;;;;;;5502575;26;19928;-57
2024/04/21 09:08:01;;;;;;;;;;;;;;;;;;5504100;26;19979;-59
2024/04/21 09:10:27;;;;;;;;;;;;;;;;;;5462240;26;19940;-59
2024/04/21 09:12:52;;;;;;;;;;;;;;;;;;5503640;25;20002;-59
2024/04/21 09:15:18;;;;;;;;;;;;;;;;;;5492116;26;20000;-59
2024/04/21 09:17:45;;;;;;;;;;;;;;;;;;5496043;25;19927;-59
2024/04/21 09:20:11;;;;;;;;;;;;;;;;;;5493667;26;19951;-59
2024/04/21 09:22:37;;;;;;;;;;;;;;;;;;5505176;25;19927;-59
2024/04/21 09:25:02;;;;;;;;;;;;;;;;;;5504279;26;19940;-59
2024/04/21 09:27:29;;;;;;;;;;;;;;;;;;5497466;26;19935;-59
2024/04/21 09:29:57;;;;;;;;;;;;;;;;;;5493421;26;20263;-59
2024/04/21 09:32:23;;;;;;;;;;;;;;;;;;5504588;25;19996;-59
2024/04/21 09:34:49;;;;;;;;;;;;;;;;;;5494030;25;19936;-59
2024/04/21 09:37:15;;;;;;;;;;;;;;;;;;5511885;26;19995;-59
2024/04/21 09:39:41;;;;;;;;;;;;;;;;;;5514538;25;20450;-59
2024/04/21 09:42:07;;;;;;;;;;;;;;;;;;5507795;26;19977;-59
2024/04/21 09:44:33;;;;;;;;;;;;;;;;;;5497081;26;19927;-59
2024/04/21 09:46:59;;;;;;;;;;;;;;;;;;5501333;26;19935;-59
2024/04/21 09:49:25;;;;;;;;;;;;;;;;;;5500174;25;19955;-59
2024/04/21 09:51:51;;;;;;;;;;;;;;;;;;5505171;26;20294;-59
2024/04/21 09:54:19;;;;;;;;;;;;;;;;;;5502254;26;19936;-59
2024/04/21 09:56:46;;;;;;;;;;;;;;;;;;5506839;26;19932;-59
2024/04/21 09:59:12;;;;;;;;;;;;;;;;;;5506367;26;19935;-60
2024/04/21 10:01:38;;;;;;;;;;;;;;;;;;5501366;26;19935;-60
2024/04/21 10:04:04;;;;;;;;;;;;;;;;;;5504072;25;19935;-59
2024/04/21 10:06:30;;;;;;;;;;;;;;;;;;5495977;26;19928;-60
2024/04/21 10:08:56;;;;;;;;;;;;;;;;;;5501468;25;19931;-60
2024/04/21 10:11:22;;;;;;;;;;;;;;;;;;5516686;26;19928;-60
2024/04/21 10:13:48;;;;;;;;;;;;;;;;;;5498399;25;19996;-59
2024/04/21 10:16:14;;;;;;;;;;;;;;;;;;5501572;26;19928;-59
2024/04/21 10:18:40;;;;;;;;;;;;;;;;;;5510034;26;19927;-59
2024/04/21 10:21:06;;;;;;;;;;;;;;;;;;5513119;25;19935;-60
2024/04/21 10:23:32;;;;;;;;;;;;;;;;;;5502476;25;19927;-59
2024/04/21 10:25:57;;;;;;;;;;;;;;;;;;5502272;26;20431;-59
2024/04/21 10:28:24;;;;;;;;;;;;;;;;;;5501585;26;19934;-60
2024/04/21 10:30:50;;;;;;;;;;;;;;;;;;5487087;26;19928;-60
2024/04/21 10:33:16;;;;;;;;;;;;;;;;;;5501504;25;19927;-59
2024/04/21 10:35:42;;;;;;;;;;;;;;;;;;5520962;25;19976;-60
2024/04/21 10:38:08;;;;;;;;;;;;;;;;;;5511189;25;19931;-59
2024/04/21 10:40:34;;;;;;;;;;;;;;;;;;5501266;26;19950;-59
2024/04/21 10:43:00;;;;;;;;;;;;;;;;;;5517631;25;20327;-58
2024/04/21 10:45:26;;;;;;;;;;;;;;;;;;5509623;25;20293;-59
2024/04/21 10:47:52;;;;;;;;;;;;;;;;;;5498039;26;19927;-59
2024/04/21 10:50:18;;;;;;;;;;;;;;;;;;5493353;26;19927;-59
2024/04/21 10:52:45;;;;;;;;;;;;;;;;;;5491842;25;19927;-60
2024/04/21 10:55:10;;;;;;;;;;;;;;;;;;5497103;26;19999;-60
2024/04/21 10:57:36;;;;;;;;;;;;;;;;;;5501596;25;19936;-59
2024/04/21 11:00:02;;;;;;;;;;;;;;;;;;5495216;26;19944;-58
2024/04/21 11:02:28;;;;;;;;;;;;;;;;;;5494665;25;20275;-59
2024/04/21 11:04:55;;;;;;;;;;;;;;;;;;5492571;26;20319;-59
2024/04/21 11:07:21;;;;;;;;;;;;;;;;;;5503781;25;19928;-59
2024/04/21 11:09:47;;;;;;;;;;;;;;;;;;5495143;26;19928;-56
2024/04/21 11:12:16;;;;;;;;;;;;;;;;;;5491132;26;20510;-55
2024/04/21 11:14:42;;;;;;;;;;;;;;;;;;5464497;26;19935;-54
2024/04/21 11:17:08;;;;;;;;;;;;;;;;;;5502295;26;20003;-55
2024/04/21 11:19:34;;;;;;;;;;;;;;;;;;5504129;25;19932;-58
2024/04/21 11:22:00;;;;;;;;;;;;;;;;;;5499899;25;19935;-59
2024/04/21 11:24:26;;;;;;;;;;;;;;;;;;5494046;25;19955;-58
2024/04/21 11:26:52;;;;;;;;;;;;;;;;;;5489615;26;20615;-59
2024/04/21 11:29:18;;;;;;;;;;;;;;;;;;5485479;26;20661;-56
2024/04/21 11:31:44;;;;;;;;;;;;;;;;;;5500492;25;20263;-56
2024/04/21 11:34:10;;;;;;;;;;;;;;;;;;5503354;25;20282;-56
2024/04/21 11:36:36;;;;;;;;;;;;;;;;;;5496182;26;19973;-56
2024/04/21 11:39:03;;;;;;;;;;;;;;;;;;5491943;26;20248;-56
2024/04/21 11:41:29;;;;;;;;;;;;;;;;;;5505171;25;19940;-56
2024/04/21 11:43:55;;;;;;;;;;;;;;;;;;5499160;25;20316;-56
2024/04/21 11:46:20;;;;;;;;;;;;;;;;;;5496326;26;20016;-56
2024/04/21 11:48:46;;;;;;;;;;;;;;;;;;5499353;25;19928;-56
2024/04/21 11:51:12;;;;;;;;;;;;;;;;;;5506568;25;20351;-55
2024/04/21 11:53:38;;;;;;;;;;;;;;;;;;5496853;26;19928;-56
2024/04/21 11:56:04;;;;;;;;;;;;;;;;;;5510548;26;20602;-57
2024/04/21 11:58:33;;;;;;;;;;;;;;;;;;5512142;25;19978;-57
2024/04/21 12:00:59;;;;;;;;;;;;;;;;;;5495642;26;19996;-57
2024/04/21 12:03:25;;;;;;;;;;;;;;;;;;5492647;25;19950;-57
2024/04/21 12:05:51;;;;;;;;;;;;;;;;;;5501328;26;20314;-57
2024/04/21 12:08:17;;;;;;;;;;;;;;;;;;5522189;25;20258;-56
2024/04/21 12:10:43;;;;;;;;;;;;;;;;;;5500200;26;19931;-56
2024/04/21 12:13:09;;;;;;;;;;;;;;;;;;5492128;25;19935;-55
2024/04/21 12:15:35;;;;;;;;;;;;;;;;;;5488654;26;19936;-55
2024/04/21 12:18:01;;;;;;;;;;;;;;;;;;5491205;26;19928;-55
2024/04/21 12:20:27;;;;;;;;;;;;;;;;;;5495555;26;20018;-55
2024/04/21 12:22:53;;;;;;;;;;;;;;;;;;5471286;26;19928;-55
2024/04/21 12:25:19;;;;;;;;;;;;;;;;;;5510416;26;19935;-56
2024/04/21 12:27:45;;;;;;;;;;;;;;;;;;5490826;26;19938;-54
2024/04/21 12:30:12;;;;;;;;;;;;;;;;;;5516933;26;19932;-54
2024/04/21 12:32:38;;;;;;;;;;;;;;;;;;5521933;25;19939;-55
2024/04/21 12:35:04;;;;;;;;;;;;;;;;;;5518108;26;19999;-57
2024/04/21 12:37:29;;;;;;;;;;;;;;;;;;5522501;25;20363;-54
2024/04/21 12:39:55;;;;;;;;;;;;;;;;;;5524147;25;19932;-56
2024/04/21 12:42:21;;;;;;;;;;;;;;;;;;5517481;26;19996;-57
2024/04/21 12:44:47;;;;;;;;;;;;;;;;;;5531448;25;19934;-56
2024/04/21 12:47:13;;;;;;;;;;;;;;;;;;5514603;26;20359;-56
2024/04/21 12:49:39;;;;;;;;;;;;;;;;;;5490238;25;19928;-57
2024/04/21 12:52:05;;;;;;;;;;;;;;;;;;5503347;26;19936;-56
2024/04/21 12:54:31;;;;;;;;;;;;;;;;;;5510069;25;19936;-56
2024/04/21 12:56:57;;;;;;;;;;;;;;;;;;5499970;25;19967;-56
2024/04/21 12:59:23;;;;;;;;;;;;;;;;;;5510136;25;20311;-56
2024/04/21 13:01:49;;;;;;;;;;;;;;;;;;5488354;26;20272;-56
2024/04/21 13:04:15;;;;;;;;;;;;;;;;;;5508884;26;19935;-56
2024/04/21 13:06:41;;;;;;;;;;;;;;;;;;5506803;25;19939;-56
2024/04/21 13:09:07;;;;;;;;;;;;;;;;;;5504660;26;20023;-56
2024/04/21 13:11:33;;;;;;;;;;;;;;;;;;5497536;25;19934;-56
2024/04/21 13:13:59;;;;;;;;;;;;;;;;;;5499678;26;19928;-56
2024/04/21 13:16:25;;;;;;;;;;;;;;;;;;5505209;25;19943;-56
2024/04/21 13:18:51;;;;;;;;;;;;;;;;;;5505159;26;19928;-56
2024/04/21 13:21:17;;;;;;;;;;;;;;;;;;5518979;25;20000;-57
2024/04/21 13:23:43;;;;;;;;;;;;;;;;;;5496649;25;19936;-56
2024/04/21 13:26:09;;;;;;;;;;;;;;;;;;5488257;26;20012;-57
2024/04/21 13:28:35;;;;;;;;;;;;;;;;;;5505164;25;19947;-56
2024/04/21 13:31:01;;;;;;;;;;;;;;;;;;5498782;26;20004;-56
2024/04/21 13:33:27;;;;;;;;;;;;;;;;;;5503362;26;19944;-56
2024/04/21 13:35:53;;;;;;;;;;;;;;;;;;5498202;26;20001;-54
2024/04/21 13:38:19;;;;;;;;;;;;;;;;;;5497484;25;19932;-58
2024/04/21 13:40:45;;;;;;;;;;;;;;;;;;5484720;26;19936;-59
2024/04/21 13:43:10;;;;;;;;;;;;;;;;;;5506479;25;20686;-58
2024/04/21 13:45:36;;;;;;;;;;;;;;;;;;5500164;25;20360;-58
2024/04/21 13:48:02;;;;;;;;;;;;;;;;;;5509671;25;19928;-58
2024/04/21 13:50:28;;;;;;;;;;;;;;;;;;5490157;26;19928;-58
2024/04/21 13:52:54;;;;;;;;;;;;;;;;;;5502851;25;20000;-58
2024/04/21 13:55:20;;;;;;;;;;;;;;;;;;5487374;26;19931;-58
2024/04/21 13:57:46;;;;;;;;;;;;;;;;;;5519326;25;20287;-58
2024/04/21 14:00:12;;;;;;;;;;;;;;;;;;5496819;26;20336;-58
2024/04/21 14:02:38;;;;;;;;;;;;;;;;;;5508756;25;20391;-57
2024/04/21 14:05:04;;;;;;;;;;;;;;;;;;5515418;25;19927;-57
2024/04/21 14:07:30;;;;;;;;;;;;;;;;;;5499441;25;19927;-57
2024/04/21 14:09:56;;;;;;;;;;;;;;;;;;5490674;26;19939;-57
2024/04/21 14:12:22;;;;;;;;;;;;;;;;;;5497088;25;19928;-57
2024/04/21 14:14:48;;;;;;;;;;;;;;;;;;5503827;25;20035;-54
2024/04/21 14:17:13;;;;;;;;;;;;;;;;;;5486810;26;19938;-55
2024/04/21 14:19:39;;;;;;;;;;;;;;;;;;5501570;25;19928;-53
2024/04/21 14:22:06;;;;;;;;;;;;;;;;;;5507050;25;19927;-54
2024/04/21 14:24:32;;;;;;;;;;;;;;;;;;5493781;26;20391;-54
2024/04/21 14:26:58;;;;;;;;;;;;;;;;;;5515775;25;19935;-55
2024/04/21 14:29:24;;;;;;;;;;;;;;;;;;5497502;26;19927;-55
2024/04/21 14:31:50;;;;;;;;;;;;;;;;;;5516330;25;19928;-55
2024/04/21 14:34:16;;;;;;;;;;;;;;;;;;5495390;26;19932;-55
2024/04/21 14:36:42;;;;;;;;;;;;;;;;;;5503422;25;20030;-54
2024/04/21 14:39:08;;;;;;;;;;;;;;;;;;5496900;26;19927;-54
2024/04/21 14:41:33;;;;;;;;;;;;;;;;;;5498077;25;20352;-58
2024/04/21 14:43:59;;;;;;;;;;;;;;;;;;5492941;26;19935;-57
2024/04/21 14:46:25;;;;;;;;;;;;;;;;;;5500441;25;19931;-58
2024/04/21 14:48:51;;;;;;;;;;;;;;;;;;5503094;26;19936;-56
2024/04/21 14:51:17;;;;;;;;;;;;;;;;;;5492468;25;19932;-56
2024/04/21 14:53:43;;;;;;;;;;;;;;;;;;5487634;26;19939;-56
2024/04/21 14:56:09;;;;;;;;;;;;;;;;;;5491249;25;19932;-56
2024/04/21 14:58:35;;;;;;;;;;;;;;;;;;5494192;26;20314;-56
2024/04/21 15:01:01;;;;;;;;;;;;;;;;;;5505818;25;19935;-53
2024/04/21 15:03:27;;;;;;;;;;;;;;;;;;5490915;26;19932;-55
2024/04/21 15:05:53;;;;;;;;;;;;;;;;;;5517577;25;19931;-54
2024/04/21 15:08:19;;;;;;;;;;;;;;;;;;5492178;26;19932;-57
2024/04/21 15:10:45;;;;;;;;;;;;;;;;;;5505950;25;19999;-56
2024/04/21 15:13:11;;;;;;;;;;;;;;;;;;5517090;26;19973;-56
2024/04/21 15:15:37;;;;;;;;;;;;;;;;;;5512808;25;19935;-56
2024/04/21 15:18:03;;;;;;;;;;;;;;;;;;5504114;26;19927;-56
2024/04/21 15:20:29;;;;;;;;;;;;;;;;;;5515997;25;19927;-56
2024/04/21 15:22:55;;;;;;;;;;;;;;;;;;5514998;26;19927;-56
2024/04/21 15:25:21;;;;;;;;;;;;;;;;;;5510283;25;19926;-56
2024/04/21 15:27:47;;;;;;;;;;;;;;;;;;5503683;25;19932;-56
2024/04/21 15:30:13;;;;;;;;;;;;;;;;;;5514037;25;20337;-56
2024/04/21 15:32:45;;;;;;;;;;;;;;;;;;5498661;26;20259;-56
2024/04/21 15:35:11;;;;;;;;;;;;;;;;;;5498635;25;20489;-56
2024/04/21 15:37:41;;;;;;;;;;;;;;;;;;5501400;26;19935;-56
2024/04/21 15:40:08;;;;;;;;;;;;;;;;;;5498292;25;20374;-56
2024/04/21 15:42:34;;;;;;;;;;;;;;;;;;5522352;25;19927;-56
2024/04/21 15:45:00;;;;;;;;;;;;;;;;;;5507848;26;20260;-56
2024/04/21 15:47:26;;;;;;;;;;;;;;;;;;5501743;26;19932;-56
2024/04/21 15:49:52;;;;;;;;;;;;;;;;;;5514796;25;20052;-55
2024/04/21 15:52:18;;;;;;;;;;;;;;;;;;5517646;25;20371;-56
2024/04/21 15:54:46;;;;;;;;;;;;;;;;;;5517304;25;20272;-58
2024/04/21 15:57:12;;;;;;;;;;;;;;;;;;5514402;25;20293;-57
2024/04/21 15:59:38;;;;;;;;;;;;;;;;;;5499422;26;19943;-60
2024/04/21 16:02:04;;;;;;;;;;;;;;;;;;5506762;25;20013;-59
2024/04/21 16:04:30;;;;;;;;;;;;;;;;;;5510446;26;19931;-59
2024/04/21 16:06:56;;;;;;;;;;;;;;;;;;5525091;25;19927;-59
2024/04/21 16:09:22;;;;;;;;;;;;;;;;;;5518126;26;19996;-60
2024/04/21 16:11:48;;;;;;;;;;;;;;;;;;5495024;25;20012;-61
2024/04/21 16:14:16;;;;;;;;;;;;;;;;;;5505622;26;19955;-60
2024/04/21 16:16:42;;;;;;;;;;;;;;;;;;5515934;25;19940;-60
2024/04/21 16:19:08;;;;;;;;;;;;;;;;;;5507669;26;20698;-60
2024/04/21 16:21:34;;;;;;;;;;;;;;;;;;5501610;25;19932;-59
2024/04/21 16:24:00;;;;;;;;;;;;;;;;;;5519758;26;19943;-59
2024/04/21 16:26:26;;;;;;;;;;;;;;;;;;5520941;25;20029;-58
2024/04/21 16:28:52;;;;;;;;;;;;;;;;;;5513129;26;20427;-59
2024/04/21 16:31:18;;;;;;;;;;;;;;;;;;5524979;25;19935;-59
2024/04/21 16:33:43;;;;;;;;;;;;;;;;;;5509677;26;19935;-59
2024/04/21 16:36:09;;;;;;;;;;;;;;;;;;5504841;26;20264;-59